Harpers Ferry, WV

10:45 PM EDT on March 26, 2015 (GMT -0400)
Meadowbrook | | Change Station
CLOSE
Current Station
Personal Weather Station
Location: Harpers Ferry, WV
Elevation: 465 ft
Nearby Weather Stations

Elev 465 ft 39.34 °N, 77.79 °W | Updated 15 seconds ago

Overcast
Overcast
48.6 °F
Feels Like 43 °F
N
14.4
Wind Variable Wind from NNW
Gusts 18.4 mph

Today
High -- | Low -- °F
--% Chance of Precip.
Yesterday
High -- | Low -- °F
Precip. -- in
7:05 AM 7:28 PM
Waxing Crescent, 48% visible
Pressure 29.79 in
Visibility 10.0 miles
Clouds Few 2600 ft
Overcast 9000 ft
Windchill 43 °F
Dew Point 38 °F
Humidity 67%
Rainfall 0.04 in
Snow Depth Not available.
UV 0 out of 12
Pollen 9.20 out of 12
Air Quality Not available.
Flu Activity Not available.
METAR KMRB 270153Z 34013G19KT 10SM FEW026 OVC090 11/05 A2978 RMK AO2 RAB01E10B28E53 SLP086 P0000 T01060050

More Conditions Fewer Conditions

Pressure 29.79 in
Visibility 10.0 miles
Clouds Few 2600 ft
Overcast 9000 ft
Windchill 43 °F
Dew Point 38 °F
Humidity 67%
Rainfall 0.04 in
Snow Depth Not available.
UV 0 out of 12
Pollen 9.20 out of 12
Air Quality Not available.
Flu Activity Not available.
METAR KMRB 270153Z 34013G19KT 10SM FEW026 OVC090 11/05 A2978 RMK AO2 RAB01E10B28E53 SLP086 P0000 T01060050

More Conditions Fewer Conditions

10-Day Weather Forecast

Almanac

Astronomy

Mar. 26, 2015 Rise Set
Actual Time
Civil Twilight
Nautical Twilight
Astronomical Twilight
Moon
Length of Visible Light
Length of Day
Tomorrow will be .
, % of the Moon is Illuminated

Today's Extremes

State Highs State Lows

Community

WunderPhotos

Upload Photos

1,808,689 photos uploaded!

WunderBlogs® & News

Nearby

Air Quality

  Air Quality AQ Index Pollutant
Not available.

Snow Depth

Station Depth Elevation

Earthquake Activity

City Distance Mag. Time & Date
Minimum magnitude displayed is 2.5.

Coastal Water Temperatures

Place Temperature

Stations

Nearby Weather Stations

Station Location Temp. Windchill Dew Point Humidity Wind Precip. Elev Updated Type